Time,TemperatureF,DewpointF,PressureIn,WindDirection,WindDirectionDegrees,WindSpeedMPH,WindSpeedGustMPH,Humidity,HourlyPrecipIn,Conditions,Clouds,dailyrainin,SoftwareType,DateUTC
2013-05-31 00:01:00,64.8,20.3,24.86,NW,326,3.1,3.1,18,0.00,,---,0.00,VWS V13.01,2013-05-31 05:01:00,
2013-05-31 00:06:00,64.0,19.7,24.86,NW,326,3.1,3.1,18,0.00,,---,0.00,VWS V13.01,2013-05-31 05:06:00,
2013-05-31 00:11:00,64.0,19.7,24.86,NNW,333,3.6,3.6,18,0.00,,---,0.00,VWS V13.01,2013-05-31 05:11:00,
2013-05-31 00:16:00,63.3,19.1,24.86,NNW,333,3.6,3.6,18,0.00,,---,0.00,VWS V13.01,2013-05-31 05:16:00,
2013-05-31 00:21:00,62.8,18.7,24.86,NNW,333,3.6,3.6,18,0.00,,---,0.00,VWS V13.01,2013-05-31 05:21:00,
2013-05-31 00:26:00,62.8,18.7,24.86,NNW,333,3.6,3.6,18,0.00,,---,0.00,VWS V13.01,2013-05-31 05:26:00,
2013-05-31 00:31:00,63.0,18.8,24.86,NNW,333,3.6,3.6,18,0.00,,---,0.00,VWS V13.01,2013-05-31 05:31:00,
2013-05-31 00:36:00,63.0,18.8,24.86,NNW,330,2.7,2.7,18,0.00,,---,0.00,VWS V13.01,2013-05-31 05:36:00,
2013-05-31 00:41:00,62.4,19.6,24.86,NNW,330,2.7,2.7,19,0.00,,---,0.00,VWS V13.01,2013-05-31 05:41:00,
2013-05-31 00:46:00,62.4,19.6,24.86,NNW,330,2.7,2.7,19,0.00,,---,0.00,VWS V13.01,2013-05-31 05:46:00,
2013-05-31 00:51:00,61.9,19.2,24.86,NNW,330,2.7,2.7,19,0.00,,---,0.00,VWS V13.01,2013-05-31 05:51:00,
2013-05-31 00:56:00,61.5,18.9,24.86,NNW,330,2.7,2.7,19,0.00,,---,0.00,VWS V13.01,2013-05-31 05:56:00,
2013-05-31 01:01:00,61.5,18.9,24.86,NNW,330,2.7,2.7,19,0.00,,---,0.00,VWS V13.01,2013-05-31 06:01:00,
2013-05-31 01:06:00,60.6,18.2,24.86,NNW,330,2.7,2.7,19,0.00,,---,0.00,VWS V13.01,2013-05-31 06:06:00,
2013-05-31 01:11:00,60.6,18.2,24.86,NNW,330,2.7,2.7,19,0.00,,---,0.00,VWS V13.01,2013-05-31 06:11:00,
2013-05-31 01:16:00,60.6,18.2,24.86,NNW,330,2.7,2.7,19,0.00,,---,0.00,VWS V13.01,2013-05-31 06:16:00,
2013-05-31 01:21:00,60.6,18.2,24.86,NNW,330,2.7,2.7,19,0.00,,---,0.00,VWS V13.01,2013-05-31 06:21:00,
2013-05-31 01:26:00,60.4,18.0,24.86,NNW,330,2.7,2.7,19,0.00,,---,0.00,VWS V13.01,2013-05-31 06:26:00,
2013-05-31 01:31:00,60.6,18.2,24.86,NNW,330,2.7,2.7,19,0.00,,---,0.00,VWS V13.01,2013-05-31 06:31:00,
2013-05-31 01:36:00,60.4,18.0,24.86,NNW,330,2.7,2.7,19,0.00,,---,0.00,VWS V13.01,2013-05-31 06:36:00,
2013-05-31 01:41:00,60.3,17.9,24.86,NNW,330,2.7,2.7,19,0.00,,---,0.00,VWS V13.01,2013-05-31 06:41:00,
2013-05-31 01:46:00,60.3,17.9,24.86,NNW,331,4.0,4.0,19,0.00,,---,0.00,VWS V13.01,2013-05-31 06:46:00,
2013-05-31 01:51:00,60.1,17.7,24.86,NNW,331,4.0,4.0,19,0.00,,---,0.00,VWS V13.01,2013-05-31 06:51:00,
2013-05-31 01:56:00,59.7,17.4,24.86,NNW,331,4.0,4.0,19,0.00,,---,0.00,VWS V13.01,2013-05-31 06:56:00,
2013-05-31 02:01:00,59.5,17.3,24.86,NNW,331,4.0,4.0,19,0.00,,---,0.00,VWS V13.01,2013-05-31 07:01:00,
2013-05-31 02:06:00,58.8,16.7,24.86,NNW,331,4.0,4.0,19,0.00,,---,0.00,VWS V13.01,2013-05-31 07:06:00,
2013-05-31 02:11:00,58.8,16.7,24.86,NNW,331,4.0,4.0,19,0.00,,---,0.00,VWS V13.01,2013-05-31 07:11:00,
2013-05-31 02:16:00,58.3,16.2,24.86,NNW,331,4.0,4.0,19,0.00,,---,0.00,VWS V13.01,2013-05-31 07:16:00,
2013-05-31 02:21:00,57.9,15.9,24.86,NNW,329,3.1,3.1,19,0.00,,---,0.00,VWS V13.01,2013-05-31 07:21:00,
2013-05-31 02:26:00,57.9,15.9,24.86,NNW,329,3.1,3.1,19,0.00,,---,0.00,VWS V13.01,2013-05-31 07:26:00,
2013-05-31 02:31:00,57.9,15.9,24.86,NNW,329,3.1,3.1,19,0.00,,---,0.00,VWS V13.01,2013-05-31 07:31:00,
2013-05-31 02:36:00,57.9,15.9,24.83,NNW,329,3.1,3.1,19,0.00,,---,0.00,VWS V13.01,2013-05-31 07:36:00,
2013-05-31 02:41:00,57.9,15.9,24.83,NNW,332,3.6,3.6,19,0.00,,---,0.00,VWS V13.01,2013-05-31 07:41:00,
2013-05-31 02:46:00,58.3,16.2,24.83,NNW,332,3.6,3.6,19,0.00,,---,0.00,VWS V13.01,2013-05-31 07:46:00,
2013-05-31 02:51:00,58.1,16.1,24.83,NNW,344,4.0,4.0,19,0.00,,---,0.00,VWS V13.01,2013-05-31 07:51:00,
2013-05-31 02:56:00,58.1,16.1,24.83,NNW,344,4.0,4.0,19,0.00,,---,0.00,VWS V13.01,2013-05-31 07:56:00,
2013-05-31 03:01:00,58.1,16.1,24.83,NNW,344,4.0,4.0,19,0.00,,---,0.00,VWS V13.01,2013-05-31 08:01:00,
2013-05-31 03:06:00,57.6,15.6,24.83,NNW,345,0.0,0.0,19,0.00,,---,0.00,VWS V13.01,2013-05-31 08:06:00,
2013-05-31 03:11:00,57.4,15.5,24.83,NNW,345,0.0,0.0,19,0.00,,---,0.00,VWS V13.01,2013-05-31 08:11:00,
2013-05-31 03:16:00,56.8,16.2,24.83,NNW,345,0.0,0.0,20,0.00,,---,0.00,VWS V13.01,2013-05-31 08:16:00,
2013-05-31 03:22:00,56.8,16.2,24.83,NNW,345,0.0,0.0,20,0.00,,---,0.00,VWS V13.01,2013-05-31 08:22:00,
2013-05-31 03:27:00,56.8,16.2,24.83,NNW,345,0.0,0.0,20,0.00,,---,0.00,VWS V13.01,2013-05-31 08:27:00,
2013-05-31 03:32:00,55.4,15.0,24.83,NNW,343,3.6,3.6,20,0.00,,---,0.00,VWS V13.01,2013-05-31 08:32:00,
2013-05-31 03:37:00,55.4,15.0,24.83,NNW,338,3.1,3.1,20,0.00,,---,0.00,VWS V13.01,2013-05-31 08:37:00,
2013-05-31 03:42:00,55.4,15.0,24.83,NNW,343,4.0,4.0,20,0.00,,---,0.00,VWS V13.01,2013-05-31 08:42:00,
2013-05-31 03:47:00,55.4,15.0,24.83,NNW,343,0.0,0.0,20,0.00,,---,0.00,VWS V13.01,2013-05-31 08:47:00,
2013-05-31 03:52:00,55.0,14.7,24.83,NNW,343,0.0,0.0,20,0.00,,---,0.00,VWS V13.01,2013-05-31 08:52:00,
2013-05-31 03:57:00,54.5,14.3,24.83,NNW,343,0.0,0.0,20,0.00,,---,0.00,VWS V13.01,2013-05-31 08:57:00,
2013-05-31 04:02:00,54.5,14.3,24.83,NNW,343,0.0,0.0,20,0.00,,---,0.00,VWS V13.01,2013-05-31 09:02:00,
2013-05-31 04:07:00,54.5,14.3,24.83,NNW,343,0.0,0.0,20,0.00,,---,0.00,VWS V13.01,2013-05-31 09:07:00,
2013-05-31 04:12:00,54.5,14.3,24.83,NNW,343,0.0,0.0,20,0.00,,---,0.00,VWS V13.01,2013-05-31 09:12:00,
2013-05-31 04:17:00,54.9,14.6,24.83,NNW,342,0.0,0.0,20,0.00,,---,0.00,VWS V13.01,2013-05-31 09:17:00,
2013-05-31 04:22:00,54.9,14.6,24.83,NNW,342,0.0,0.0,20,0.00,,---,0.00,VWS V13.01,2013-05-31 09:22:00,
2013-05-31 04:27:00,54.3,14.1,24.83,NNW,342,0.0,0.0,20,0.00,,---,0.00,VWS V13.01,2013-05-31 09:27:00,
2013-05-31 04:32:00,54.3,14.1,24.83,NNW,341,0.0,0.0,20,0.00,,---,0.00,VWS V13.01,2013-05-31 09:32:00,
2013-05-31 04:37:00,54.5,14.3,24.83,NNW,341,0.0,0.0,20,0.00,,---,0.00,VWS V13.01,2013-05-31 09:37:00,
2013-05-31 04:42:00,54.9,14.6,24.83,NNW,341,0.0,0.0,20,0.00,,---,0.00,VWS V13.01,2013-05-31 09:42:00,
2013-05-31 04:47:00,54.5,14.3,24.83,NNW,341,0.0,0.0,20,0.00,,---,0.00,VWS V13.01,2013-05-31 09:47:00,
2013-05-31 04:52:00,54.5,14.3,24.83,North,353,0.0,0.0,20,0.00,,---,0.00,VWS V13.01,2013-05-31 09:52:00,
2013-05-31 04:57:00,53.8,13.7,24.83,North,353,0.0,0.0,20,0.00,,---,0.00,VWS V13.01,2013-05-31 09:57:00,
2013-05-31 05:02:00,53.8,13.7,24.83,North,353,0.0,0.0,20,0.00,,---,0.00,VWS V13.01,2013-05-31 10:02:00,
2013-05-31 05:07:00,52.9,14.0,24.83,NNW,328,0.0,0.0,21,0.00,,---,0.00,VWS V13.01,2013-05-31 10:07:00,
2013-05-31 05:12:00,53.2,14.3,24.83,NW,326,3.6,3.6,21,0.00,,---,0.00,VWS V13.01,2013-05-31 10:12:00,
2013-05-31 05:17:00,53.8,13.7,24.83,NNW,327,3.1,3.1,20,0.00,,---,0.00,VWS V13.01,2013-05-31 10:17:00,
2013-05-31 05:22:00,54.0,13.8,24.83,NNW,345,0.0,0.0,20,0.00,,---,0.00,VWS V13.01,2013-05-31 10:22:00,
2013-05-31 05:27:00,53.8,13.7,24.83,NW,321,0.0,3.1,20,0.00,,---,0.00,VWS V13.01,2013-05-31 10:27:00,
2013-05-31 05:32:00,53.4,14.5,24.83,NW,321,0.0,0.0,21,0.00,,---,0.00,VWS V13.01,2013-05-31 10:32:00,
2013-05-31 05:37:00,53.2,14.3,24.83,NW,321,0.0,0.0,21,0.00,,---,0.00,VWS V13.01,2013-05-31 10:37:00,
2013-05-31 05:51:00,54.0,13.8,24.83,North,0,3.6,3.6,20,0.00,,---,0.00,VWS V13.01,2013-05-31 10:51:00,
2013-05-31 05:57:00,54.0,13.8,24.83,NW,326,0.0,0.0,20,0.00,,---,0.00,VWS V13.01,2013-05-31 10:57:00,
2013-05-31 06:02:00,54.5,14.3,24.83,NW,326,0.0,0.0,20,0.00,,---,0.00,VWS V13.01,2013-05-31 11:02:00,
2013-05-31 06:07:00,54.3,14.1,24.83,NW,326,0.0,0.0,20,0.00,,---,0.00,VWS V13.01,2013-05-31 11:07:00,
2013-05-31 06:12:00,54.1,14.0,24.83,NW,326,0.0,0.0,20,0.00,,---,0.00,VWS V13.01,2013-05-31 11:12:00,
2013-05-31 06:17:00,53.1,14.2,24.83,NW,326,0.0,0.0,21,0.00,,---,0.00,VWS V13.01,2013-05-31 11:17:00,
2013-05-31 06:24:00,53.1,14.2,24.83,NW,326,0.0,0.0,21,0.00,,---,0.00,VWS V13.01,2013-05-31 11:24:00,
2013-05-31 06:29:00,52.5,13.7,24.83,NW,326,0.0,0.0,21,0.00,,---,0.00,VWS V13.01,2013-05-31 11:29:00,
2013-05-31 06:34:00,52.2,13.4,24.83,NW,326,0.0,0.0,21,0.00,,---,0.00,VWS V13.01,2013-05-31 11:34:00,
2013-05-31 06:39:00,52.0,13.3,24.83,NW,326,3.6,3.6,21,0.00,,---,0.00,VWS V13.01,2013-05-31 11:39:00,
2013-05-31 06:45:00,52.2,13.4,24.83,NNW,334,0.0,0.0,21,0.00,,---,0.00,VWS V13.01,2013-05-31 11:45:00,
2013-05-31 06:50:00,52.2,13.4,24.83,NNW,334,0.0,0.0,21,0.00,,---,0.00,VWS V13.01,2013-05-31 11:50:00,
2013-05-31 07:15:00,52.3,13.6,24.83,NNW,334,0.0,0.0,21,0.00,,---,0.00,VWS V13.01,2013-05-31 12:15:00,
2013-05-31 07:20:00,52.0,13.3,24.83,NNW,334,0.0,0.0,21,0.00,,---,0.00,VWS V13.01,2013-05-31 12:20:00,
2013-05-31 07:29:00,53.2,14.3,24.83,NNW,334,0.0,0.0,21,0.00,,---,0.00,VWS V13.01,2013-05-31 12:29:00,
2013-05-31 07:34:00,53.2,14.3,24.83,NNW,334,0.0,0.0,21,0.00,,---,0.00,VWS V13.01,2013-05-31 12:34:00,
2013-05-31 07:39:00,55.9,15.5,24.83,NNW,334,3.6,3.6,20,0.00,,---,0.00,VWS V13.01,2013-05-31 12:39:00,
2013-05-31 07:45:00,55.9,15.5,24.86,NW,323,4.5,4.5,20,0.00,,---,0.00,VWS V13.01,2013-05-31 12:45:00,
2013-05-31 07:50:00,58.6,16.5,24.86,NW,312,4.0,4.0,19,0.00,,---,0.00,VWS V13.01,2013-05-31 12:50:00,
2013-05-31 07:55:00,58.6,16.5,24.86,NW,314,4.0,4.0,19,0.00,,---,0.00,VWS V13.01,2013-05-31 12:55:00,
2013-05-31 08:00:00,58.6,16.5,24.86,NNW,333,4.0,4.0,19,0.00,,---,0.00,VWS V13.01,2013-05-31 13:00:00,
2013-05-31 08:05:00,58.6,16.5,24.86,NNW,329,2.7,2.7,19,0.00,,---,0.00,VWS V13.01,2013-05-31 13:05:00,
2013-05-31 08:10:00,58.6,16.5,24.86,NNW,329,0.0,0.0,19,0.00,,---,0.00,VWS V13.01,2013-05-31 13:10:00,
2013-05-31 08:15:00,64.6,20.1,24.86,NNW,329,0.0,0.0,18,0.00,,---,0.00,VWS V13.01,2013-05-31 13:15:00,
2013-05-31 08:20:00,66.2,20.1,24.86,NNW,329,0.0,0.0,17,0.00,,---,0.00,VWS V13.01,2013-05-31 13:20:00,
2013-05-31 08:25:00,66.2,20.1,24.86,NNW,329,0.0,0.0,17,0.00,,---,0.00,VWS V13.01,2013-05-31 13:25:00,
2013-05-31 08:30:00,66.2,20.1,24.86,NNW,329,0.0,0.0,17,0.00,,---,0.00,VWS V13.01,2013-05-31 13:30:00,
2013-05-31 08:35:00,71.6,23.1,24.86,NNW,331,0.0,0.0,16,0.00,,---,0.00,VWS V13.01,2013-05-31 13:35:00,
2013-05-31 08:40:00,71.6,23.1,24.86,NNW,329,5.4,5.4,16,0.00,,---,0.00,VWS V13.01,2013-05-31 13:40:00,
2013-05-31 08:45:00,71.6,23.1,24.86,NNW,327,3.6,3.6,16,0.00,,---,0.00,VWS V13.01,2013-05-31 13:45:00,
2013-05-31 08:50:00,71.6,23.1,24.86,ENE,63,6.3,6.3,16,0.00,,---,0.00,VWS V13.01,2013-05-31 13:50:00,
2013-05-31 08:55:00,71.6,23.1,24.86,NW,326,4.0,5.8,16,0.00,,---,0.00,VWS V13.01,2013-05-31 13:55:00,
2013-05-31 09:00:00,78.4,27.0,24.86,North,0,6.3,8.1,15,0.00,,---,0.00,VWS V13.01,2013-05-31 14:00:00,
2013-05-31 09:05:00,78.8,27.3,24.86,NNW,337,6.3,6.3,15,0.00,,---,0.00,VWS V13.01,2013-05-31 14:05:00,
2013-05-31 09:10:00,79.7,28.0,24.86,North,353,5.8,5.8,15,0.00,,---,0.00,VWS V13.01,2013-05-31 14:10:00,
2013-05-31 09:15:00,79.7,28.0,24.89,East,93,6.3,6.3,15,0.00,,---,0.00,VWS V13.01,2013-05-31 14:15:00,
2013-05-31 09:20:00,79.7,28.0,24.89,North,357,8.1,8.1,15,0.00,,---,0.00,VWS V13.01,2013-05-31 14:20:00,
2013-05-31 09:25:00,81.3,27.6,24.89,NW,314,5.4,5.4,14,0.00,,---,0.00,VWS V13.01,2013-05-31 14:25:00,
2013-05-31 09:30:00,82.0,28.2,24.89,NNW,329,5.8,5.8,14,0.00,,---,0.00,VWS V13.01,2013-05-31 14:30:00,
2013-05-31 09:35:00,82.2,28.3,24.89,North,357,7.6,7.6,14,0.00,,---,0.00,VWS V13.01,2013-05-31 14:35:00,
2013-05-31 09:40:00,82.2,28.3,24.89,NNW,344,8.3,8.3,14,0.00,,---,0.00,VWS V13.01,2013-05-31 14:40:00,
2013-05-31 09:45:00,82.2,28.3,24.89,NNW,346,7.2,7.2,14,0.00,,---,0.00,VWS V13.01,2013-05-31 14:45:00,
2013-05-31 09:50:00,84.0,29.8,24.89,West,266,5.4,5.4,14,0.00,,---,0.00,VWS V13.01,2013-05-31 14:50:00,
2013-05-31 09:55:00,84.0,29.8,24.89,NNW,342,3.6,3.6,14,0.00,,---,0.00,VWS V13.01,2013-05-31 14:55:00,
2013-05-31 10:00:00,84.2,28.1,24.89,NNE,14,3.1,3.1,13,0.00,,---,0.00,VWS V13.01,2013-05-31 15:00:00,
2013-05-31 10:05:00,85.3,28.9,24.89,NNW,335,7.6,7.6,13,0.00,,---,0.00,VWS V13.01,2013-05-31 15:05:00,
2013-05-31 10:10:00,86.4,29.8,24.89,North,1,4.9,4.9,13,0.00,,---,0.00,VWS V13.01,2013-05-31 15:10:00,
2013-05-31 10:15:00,87.1,30.3,24.89,North,353,4.9,5.8,13,0.00,,---,0.00,VWS V13.01,2013-05-31 15:15:00,
2013-05-31 10:20:00,87.1,30.3,24.89,North,357,4.5,4.5,13,0.00,,---,0.00,VWS V13.01,2013-05-31 15:20:00,
2013-05-31 10:25:00,88.2,31.2,24.89,NW,319,5.4,5.4,13,0.00,,---,0.00,VWS V13.01,2013-05-31 15:25:00,
2013-05-31 10:30:00,88.2,31.2,24.89,NW,326,3.1,3.1,13,0.00,,---,0.00,VWS V13.01,2013-05-31 15:30:00,
2013-05-31 10:35:00,88.2,31.2,24.89,NNW,331,4.0,5.8,13,0.00,,---,0.00,VWS V13.01,2013-05-31 15:35:00,
2013-05-31 10:40:00,88.2,31.2,24.89,NNW,327,5.8,5.8,13,0.00,,---,0.00,VWS V13.01,2013-05-31 15:40:00,
2013-05-31 10:45:00,90.3,30.9,24.89,North,357,3.6,3.6,12,0.00,,---,0.00,VWS V13.01,2013-05-31 15:45:00,
2013-05-31 10:50:00,90.7,31.2,24.89,North,349,3.6,6.3,12,0.00,,---,0.00,VWS V13.01,2013-05-31 15:50:00,
2013-05-31 10:55:00,90.7,31.2,24.89,NW,315,8.1,8.1,12,0.00,,---,0.00,VWS V13.01,2013-05-31 15:55:00,
2013-05-31 11:00:00,91.6,31.9,24.89,NNW,332,5.8,5.8,12,0.00,,---,0.00,VWS V13.01,2013-05-31 16:00:00,
2013-05-31 11:05:00,91.8,32.0,24.89,North,357,5.8,5.8,12,0.00,,---,0.00,VWS V13.01,2013-05-31 16:05:00,
2013-05-31 11:10:00,92.1,32.3,24.89,NNW,331,5.8,5.8,12,0.00,,---,0.00,VWS V13.01,2013-05-31 16:10:00,
2013-05-31 11:15:00,91.8,32.0,24.89,North,357,3.1,3.1,12,0.00,,---,0.00,VWS V13.01,2013-05-31 16:15:00,
2013-05-31 11:20:00,92.1,32.3,24.92,East,86,5.8,5.8,12,0.00,,---,0.00,VWS V13.01,2013-05-31 16:20:00,
2013-05-31 11:25:00,92.1,32.3,24.92,NNW,334,5.4,5.4,12,0.00,,---,0.00,VWS V13.01,2013-05-31 16:25:00,
2013-05-31 11:30:00,92.1,32.3,24.92,West,275,4.9,4.9,12,0.00,,---,0.00,VWS V13.01,2013-05-31 16:30:00,
2013-05-31 11:35:00,92.1,32.3,24.92,North,349,4.9,4.9,12,0.00,,---,0.00,VWS V13.01,2013-05-31 16:35:00,
2013-05-31 11:40:00,93.0,33.0,24.92,NNW,341,6.7,6.7,12,0.00,,---,0.00,VWS V13.01,2013-05-31 16:40:00,
2013-05-31 11:45:00,93.0,33.0,24.92,NNW,337,6.3,6.3,12,0.00,,---,0.00,VWS V13.01,2013-05-31 16:45:00,
2013-05-31 11:50:00,93.0,33.0,24.92,East,79,4.9,4.9,12,0.00,,---,0.00,VWS V13.01,2013-05-31 16:50:00,
2013-05-31 11:55:00,93.0,33.0,24.92,ESE,108,2.2,2.2,12,0.00,,---,0.00,VWS V13.01,2013-05-31 16:55:00,
2013-05-31 12:00:00,94.8,32.2,24.92,NNW,339,5.4,5.4,11,0.00,,---,0.00,VWS V13.01,2013-05-31 17:00:00,
2013-05-31 12:05:00,95.2,32.5,24.92,ENE,78,3.1,3.1,11,0.00,,---,0.00,VWS V13.01,2013-05-31 17:05:00,
2013-05-31 12:10:00,96.3,33.3,24.92,WNW,301,10.1,10.1,11,0.00,,---,0.00,VWS V13.01,2013-05-31 17:10:00,
2013-05-31 12:15:00,96.3,33.3,24.92,WNW,298,6.3,6.3,11,0.00,,---,0.00,VWS V13.01,2013-05-31 17:15:00,
2013-05-31 12:20:00,96.3,33.3,24.95,NNW,342,8.3,13.2,11,0.00,,---,0.00,VWS V13.01,2013-05-31 17:20:00,
2013-05-31 12:25:00,96.3,33.3,24.95,WNW,287,11.9,11.9,11,0.00,,---,0.00,VWS V13.01,2013-05-31 17:25:00,
2013-05-31 12:30:00,94.6,32.0,24.95,NNW,327,10.5,10.5,11,0.00,,---,0.00,VWS V13.01,2013-05-31 17:30:00,
2013-05-31 12:35:00,95.0,32.3,24.95,NNW,327,8.3,8.3,11,0.00,,---,0.00,VWS V13.01,2013-05-31 17:35:00,
2013-05-31 12:40:00,95.0,32.3,24.95,NW,308,11.0,12.8,11,0.00,,---,0.00,VWS V13.01,2013-05-31 17:40:00,
2013-05-31 12:45:00,95.0,32.3,24.95,NW,305,9.2,9.2,11,0.00,,---,0.00,VWS V13.01,2013-05-31 17:45:00,
2013-05-31 12:50:00,94.5,31.9,24.95,West,281,4.9,4.9,11,0.00,,---,0.00,VWS V13.01,2013-05-31 17:50:00,
2013-05-31 12:55:00,95.2,32.5,24.95,NW,313,10.5,10.5,11,0.00,,---,0.00,VWS V13.01,2013-05-31 17:55:00,
2013-05-31 13:00:00,94.8,32.2,24.95,NE,40,3.6,3.6,11,0.00,,---,0.00,VWS V13.01,2013-05-31 18:00:00,
2013-05-31 13:05:00,94.8,32.2,24.95,WNW,296,10.5,10.5,11,0.00,,---,0.00,VWS V13.01,2013-05-31 18:05:00,
2013-05-31 13:10:00,94.8,32.2,24.95,WSW,254,4.9,4.9,11,0.00,,---,0.00,VWS V13.01,2013-05-31 18:10:00,
2013-05-31 13:15:00,95.0,32.3,24.95,WNW,294,10.5,10.5,11,0.00,,---,0.00,VWS V13.01,2013-05-31 18:15:00,
2013-05-31 13:20:00,95.7,32.9,24.95,WNW,289,12.8,12.8,11,0.00,,---,0.00,VWS V13.01,2013-05-31 18:20:00,
2013-05-31 13:25:00,95.7,32.9,24.95,WNW,302,8.1,8.1,11,0.00,,---,0.00,VWS V13.01,2013-05-31 18:25:00,
2013-05-31 13:30:00,95.7,32.9,24.95,WNW,289,10.1,10.1,11,0.00,,---,0.00,VWS V13.01,2013-05-31 18:30:00,
2013-05-31 13:35:00,95.7,32.9,24.95,West,273,8.3,8.3,11,0.00,,---,0.00,VWS V13.01,2013-05-31 18:35:00,
2013-05-31 13:40:00,95.9,33.0,24.95,West,265,8.7,8.7,11,0.00,,---,0.00,VWS V13.01,2013-05-31 18:40:00,
2013-05-31 13:45:00,95.9,33.0,24.95,NW,308,10.5,10.5,11,0.00,,---,0.00,VWS V13.01,2013-05-31 18:45:00,
2013-05-31 13:50:00,94.8,32.2,24.95,WNW,301,8.7,8.7,11,0.00,,---,0.00,VWS V13.01,2013-05-31 18:50:00,
2013-05-31 13:55:00,95.0,32.3,24.95,NW,320,15.9,15.9,11,0.00,,---,0.00,VWS V13.01,2013-05-31 18:55:00,
2013-05-31 14:00:00,95.0,32.3,24.95,NW,319,8.7,8.7,11,0.00,,---,0.00,VWS V13.01,2013-05-31 19:00:00,
2013-05-31 14:05:00,95.4,32.6,24.95,NW,319,8.7,8.7,11,0.00,,---,0.00,VWS V13.01,2013-05-31 19:05:00,
2013-05-31 14:10:00,95.4,32.6,24.95,NW,319,8.7,8.7,11,0.00,,---,0.00,VWS V13.01,2013-05-31 19:10:00,
2013-05-31 14:15:00,95.4,32.6,24.95,NW,319,8.7,8.7,11,0.00,,---,0.00,VWS V13.01,2013-05-31 19:15:00,
2013-05-31 14:20:00,95.4,32.6,24.95,NW,319,8.7,8.7,11,0.00,,---,0.00,VWS V13.01,2013-05-31 19:20:00,
2013-05-31 14:25:00,94.8,32.2,24.95,NW,319,8.7,8.7,11,0.00,,---,0.00,VWS V13.01,2013-05-31 19:25:00,
2013-05-31 14:30:00,95.0,32.3,24.95,NW,319,8.7,8.7,11,0.00,,---,0.00,VWS V13.01,2013-05-31 19:30:00,
2013-05-31 14:35:00,95.4,32.6,24.95,SW,229,8.1,8.7,11,0.00,,---,0.00,VWS V13.01,2013-05-31 19:35:00,
2013-05-31 14:40:00,95.5,32.7,24.95,SW,229,8.1,8.1,11,0.00,,---,0.00,VWS V13.01,2013-05-31 19:40:00,
2013-05-31 14:45:00,95.5,32.7,24.95,NW,309,15.4,15.4,11,0.00,,---,0.00,VWS V13.01,2013-05-31 19:45:00,
2013-05-31 14:50:00,95.5,32.7,24.95,NW,309,15.4,15.4,11,0.00,,---,0.00,VWS V13.01,2013-05-31 19:50:00,
2013-05-31 14:55:00,93.7,31.4,24.95,NW,309,15.4,15.4,11,0.00,,---,0.00,VWS V13.01,2013-05-31 19:55:00,
2013-05-31 15:00:00,93.7,31.4,24.95,NW,309,15.4,15.4,11,0.00,,---,0.00,VWS V13.01,2013-05-31 20:00:00,
2013-05-31 15:05:00,94.1,31.6,24.92,NW,309,15.4,15.4,11,0.00,,---,0.00,VWS V13.01,2013-05-31 20:05:00,
2013-05-31 15:10:00,94.1,31.6,24.92,NW,309,15.4,15.4,11,0.00,,---,0.00,VWS V13.01,2013-05-31 20:10:00,
2013-05-31 15:15:00,94.1,31.6,24.92,NW,309,15.4,15.4,11,0.00,,---,0.00,VWS V13.01,2013-05-31 20:15:00,
2013-05-31 15:20:00,93.9,31.5,24.92,NW,309,15.4,15.4,11,0.00,,---,0.00,VWS V13.01,2013-05-31 20:20:00,
2013-05-31 15:25:00,93.9,31.5,24.92,NW,309,15.4,15.4,11,0.00,,---,0.00,VWS V13.01,2013-05-31 20:25:00,
2013-05-31 15:30:00,93.7,31.4,24.92,NW,309,15.4,15.4,11,0.00,,---,0.00,VWS V13.01,2013-05-31 20:30:00,
2013-05-31 15:35:00,94.1,31.6,24.92,WNW,297,8.3,8.3,11,0.00,,---,0.00,VWS V13.01,2013-05-31 20:35:00,
2013-05-31 15:40:00,94.1,31.6,24.92,WNW,297,8.3,8.3,11,0.00,,---,0.00,VWS V13.01,2013-05-31 20:40:00,
2013-05-31 15:45:00,94.5,31.9,24.92,WNW,297,8.3,8.3,11,0.00,,---,0.00,VWS V13.01,2013-05-31 20:45:00,
2013-05-31 15:50:00,94.5,31.9,24.92,WNW,297,8.3,8.3,11,0.00,,---,0.00,VWS V13.01,2013-05-31 20:50:00,
2013-05-31 15:55:00,94.1,31.6,24.92,WNW,297,8.3,8.3,11,0.00,,---,0.00,VWS V13.01,2013-05-31 20:55:00,
2013-05-31 16:00:00,94.1,31.6,24.92,WNW,297,8.3,8.3,11,0.00,,---,0.00,VWS V13.01,2013-05-31 21:00:00,
2013-05-31 16:05:00,94.5,31.9,24.92,WNW,297,8.3,8.3,11,0.00,,---,0.00,VWS V13.01,2013-05-31 21:05:00,
2013-05-31 16:10:00,94.5,31.9,24.92,WNW,297,8.3,8.3,11,0.00,,---,0.00,VWS V13.01,2013-05-31 21:10:00,
2013-05-31 16:15:00,93.9,31.5,24.92,WNW,297,8.3,8.3,11,0.00,,---,0.00,VWS V13.01,2013-05-31 21:15:00,
2013-05-31 16:20:00,95.4,32.6,24.92,NW,321,6.3,6.3,11,0.00,,---,0.00,VWS V13.01,2013-05-31 21:20:00,
2013-05-31 16:25:00,95.4,32.6,24.92,NW,321,6.3,6.3,11,0.00,,---,0.00,VWS V13.01,2013-05-31 21:25:00,
2013-05-31 16:30:00,95.4,32.6,24.89,NW,321,6.3,6.3,11,0.00,,---,0.00,VWS V13.01,2013-05-31 21:30:00,
2013-05-31 16:35:00,95.4,32.6,24.89,NW,321,6.3,6.3,11,0.00,,---,0.00,VWS V13.01,2013-05-31 21:35:00,
2013-05-31 16:40:00,95.4,32.6,24.89,NW,321,6.3,6.3,11,0.00,,---,0.00,VWS V13.01,2013-05-31 21:40:00,
2013-05-31 16:45:00,95.4,32.6,24.89,NW,321,6.3,6.3,11,0.00,,---,0.00,VWS V13.01,2013-05-31 21:45:00,
2013-05-31 16:50:00,95.2,32.5,24.89,West,264,3.6,3.6,11,0.00,,---,0.00,VWS V13.01,2013-05-31 21:50:00,
2013-05-31 16:55:00,95.5,32.7,24.89,West,264,3.6,3.6,11,0.00,,---,0.00,VWS V13.01,2013-05-31 21:55:00,
2013-05-31 17:00:00,95.5,32.7,24.89,WNW,301,14.5,14.5,11,0.00,,---,0.00,VWS V13.01,2013-05-31 22:00:00,
2013-05-31 17:05:00,94.8,32.2,24.89,NW,304,8.3,8.3,11,0.00,,---,0.00,VWS V13.01,2013-05-31 22:05:00,
2013-05-31 17:10:00,94.8,32.2,24.89,NNW,343,6.3,6.3,11,0.00,,---,0.00,VWS V13.01,2013-05-31 22:10:00,
2013-05-31 17:15:00,95.4,32.6,24.89,NNW,343,6.3,6.3,11,0.00,,---,0.00,VWS V13.01,2013-05-31 22:15:00,
2013-05-31 17:20:00,95.7,32.9,24.86,NW,321,6.3,6.3,11,0.00,,---,0.00,VWS V13.01,2013-05-31 22:20:00,
2013-05-31 17:25:00,95.4,32.6,24.86,NW,321,6.3,6.3,11,0.00,,---,0.00,VWS V13.01,2013-05-31 22:25:00,
2013-05-31 17:30:00,95.0,32.3,24.86,WNW,295,8.7,8.7,11,0.00,,---,0.00,VWS V13.01,2013-05-31 22:30:00,
2013-05-31 17:35:00,95.0,32.3,24.86,WNW,295,8.7,8.7,11,0.00,,---,0.00,VWS V13.01,2013-05-31 22:35:00,
2013-05-31 17:40:00,94.6,32.0,24.86,West,274,11.0,11.0,11,0.00,,---,0.00,VWS V13.01,2013-05-31 22:40:00,
2013-05-31 17:45:00,94.6,32.0,24.86,WNW,295,8.3,8.3,11,0.00,,---,0.00,VWS V13.01,2013-05-31 22:45:00,
2013-05-31 17:50:00,94.8,32.2,24.86,WNW,294,7.6,9.6,11,0.00,,---,0.00,VWS V13.01,2013-05-31 22:50:00,
2013-05-31 17:55:00,94.8,32.2,24.86,West,275,8.3,8.3,11,0.00,,---,0.00,VWS V13.01,2013-05-31 22:55:00,
2013-05-31 18:00:00,94.8,32.2,24.86,West,275,8.3,8.3,11,0.00,,---,0.00,VWS V13.01,2013-05-31 23:00:00,
2013-05-31 18:05:00,95.0,32.3,24.86,WNW,284,8.7,8.7,11,0.00,,---,0.00,VWS V13.01,2013-05-31 23:05:00,
2013-05-31 18:10:00,95.0,32.3,24.86,West,263,11.0,11.0,11,0.00,,---,0.00,VWS V13.01,2013-05-31 23:10:00,
2013-05-31 18:15:00,94.6,32.0,24.86,West,274,13.2,13.2,11,0.00,,---,0.00,VWS V13.01,2013-05-31 23:15:00,
2013-05-31 18:20:00,93.7,31.4,24.86,West,275,8.7,8.7,11,0.00,,---,0.00,VWS V13.01,2013-05-31 23:20:00,
2013-05-31 18:25:00,93.9,31.5,24.86,West,265,5.4,5.4,11,0.00,,---,0.00,VWS V13.01,2013-05-31 23:25:00,
2013-05-31 18:30:00,94.5,31.9,24.86,NNW,330,8.7,8.7,11,0.00,,---,0.00,VWS V13.01,2013-05-31 23:30:00,
2013-05-31 18:35:00,94.5,31.9,24.83,NW,312,8.3,8.3,11,0.00,,---,0.00,VWS V13.01,2013-05-31 23:35:00,
2013-05-31 18:40:00,94.1,31.6,24.83,NW,312,8.3,8.3,11,0.00,,---,0.00,VWS V13.01,2013-05-31 23:40:00,
2013-05-31 18:45:00,94.1,31.6,24.83,NW,305,7.6,7.6,11,0.00,,---,0.00,VWS V13.01,2013-05-31 23:45:00,
2013-05-31 18:50:00,94.1,31.6,24.83,NW,305,7.6,7.6,11,0.00,,---,0.00,VWS V13.01,2013-05-31 23:50:00,
2013-05-31 18:55:00,93.2,31.0,24.83,NW,318,7.6,7.6,11,0.00,,---,0.00,VWS V13.01,2013-05-31 23:55:00,
2013-05-31 19:00:00,93.2,31.0,24.83,NW,306,11.0,11.0,11,0.00,,---,0.00,VWS V13.01,2013-06-01 00:00:00,
2013-05-31 19:05:00,92.7,32.7,24.83,NW,305,5.8,5.8,12,0.00,,---,0.00,VWS V13.01,2013-06-01 00:05:00,
2013-05-31 19:11:00,92.7,32.7,24.83,NW,308,7.6,10.1,12,0.00,,---,0.00,VWS V13.01,2013-06-01 00:11:00,
2013-05-31 19:16:00,92.7,32.7,24.83,NW,306,10.1,10.1,12,0.00,,---,0.00,VWS V13.01,2013-06-01 00:16:00,
2013-05-31 19:21:00,92.7,32.7,24.83,NW,320,7.2,7.2,12,0.00,,---,0.00,VWS V13.01,2013-06-01 00:21:00,
2013-05-31 19:26:00,91.6,31.9,24.83,NNW,328,6.3,6.3,12,0.00,,---,0.00,VWS V13.01,2013-06-01 00:26:00,
2013-05-31 19:31:00,91.6,31.9,24.83,NW,325,3.1,3.1,12,0.00,,---,0.00,VWS V13.01,2013-06-01 00:31:00,
2013-05-31 19:36:00,91.6,31.9,24.83,NW,325,3.1,3.1,12,0.00,,---,0.00,VWS V13.01,2013-06-01 00:36:00,
2013-05-31 19:41:00,91.2,31.6,24.83,NW,317,7.6,7.6,12,0.00,,---,0.00,VWS V13.01,2013-06-01 00:41:00,
2013-05-31 19:46:00,91.2,31.6,24.83,NW,317,10.5,10.5,12,0.00,,---,0.00,VWS V13.01,2013-06-01 00:46:00,
2013-05-31 19:51:00,90.3,30.9,24.83,NNW,340,13.2,13.2,12,0.00,,---,0.00,VWS V13.01,2013-06-01 00:51:00,
2013-05-31 19:55:00,89.2,32.0,24.83,NW,307,11.0,11.0,13,0.00,,---,0.00,VWS V13.01,2013-06-01 00:55:00,
2013-05-31 20:00:00,89.2,32.0,24.83,NW,304,7.6,7.6,13,0.00,,---,0.00,VWS V13.01,2013-06-01 01:00:00,
2013-05-31 20:05:00,88.7,31.6,24.83,WNW,302,5.8,5.8,13,0.00,,---,0.00,VWS V13.01,2013-06-01 01:05:00,
2013-05-31 20:10:00,88.7,31.6,24.83,NW,309,5.4,5.4,13,0.00,,---,0.00,VWS V13.01,2013-06-01 01:10:00,
2013-05-31 20:16:00,88.0,31.0,24.83,NW,316,8.1,8.1,13,0.00,,---,0.00,VWS V13.01,2013-06-01 01:16:00,
2013-05-31 20:21:00,88.0,31.0,24.83,NNW,339,6.3,6.3,13,0.00,,---,0.00,VWS V13.01,2013-06-01 01:21:00,
2013-05-31 20:26:00,87.1,30.3,24.83,NW,317,7.6,7.6,13,0.00,,---,0.00,VWS V13.01,2013-06-01 01:26:00,
2013-05-31 20:31:00,86.0,29.5,24.83,NNW,334,8.3,8.3,13,0.00,,---,0.00,VWS V13.01,2013-06-01 01:31:00,
2013-05-31 20:36:00,85.3,28.9,24.83,NW,324,4.9,5.8,13,0.00,,---,0.00,VWS V13.01,2013-06-01 01:36:00,
2013-05-31 20:41:00,84.4,28.2,24.83,NNW,330,5.4,6.3,13,0.00,,---,0.00,VWS V13.01,2013-06-01 01:41:00,
2013-05-31 20:46:00,84.0,29.8,24.83,NNW,327,6.3,6.3,14,0.00,,---,0.00,VWS V13.01,2013-06-01 01:46:00,
2013-05-31 20:51:00,83.3,29.2,24.83,NW,317,5.4,5.4,14,0.00,,---,0.00,VWS V13.01,2013-06-01 01:51:00,
2013-05-31 20:56:00,82.2,28.3,24.83,NW,308,3.6,4.0,14,0.00,,---,0.00,VWS V13.01,2013-06-01 01:56:00,
2013-05-31 21:01:00,81.1,27.5,24.81,NW,311,3.6,3.6,14,0.00,,---,0.00,VWS V13.01,2013-06-01 02:01:00,
2013-05-31 21:06:00,80.1,28.3,24.81,NW,308,2.7,3.6,15,0.00,,---,0.00,VWS V13.01,2013-06-01 02:06:00,
2013-05-31 21:11:00,79.2,27.6,24.81,NW,307,3.1,3.1,15,0.00,,---,0.00,VWS V13.01,2013-06-01 02:11:00,
2013-05-31 21:16:00,78.3,26.9,24.83,NW,307,2.7,3.1,15,0.00,,---,0.00,VWS V13.01,2013-06-01 02:16:00,
2013-05-31 21:21:00,77.7,26.4,24.83,NW,307,3.1,4.0,15,0.00,,---,0.00,VWS V13.01,2013-06-01 02:21:00,
2013-05-31 21:26:00,77.2,26.0,24.83,NW,307,3.6,4.0,15,0.00,,---,0.00,VWS V13.01,2013-06-01 02:26:00,
2013-05-31 21:31:00,76.8,25.7,24.83,NW,307,0.0,0.0,15,0.00,,---,0.00,VWS V13.01,2013-06-01 02:31:00,
2013-05-31 21:36:00,75.9,25.0,24.83,NW,307,0.0,0.0,15,0.00,,---,0.00,VWS V13.01,2013-06-01 02:36:00,
2013-05-31 21:41:00,75.4,24.6,24.83,NW,307,0.0,0.0,15,0.00,,---,0.00,VWS V13.01,2013-06-01 02:41:00,
2013-05-31 21:46:00,75.4,24.6,24.83,NW,307,0.0,0.0,15,0.00,,---,0.00,VWS V13.01,2013-06-01 02:46:00,
2013-05-31 21:51:00,75.4,24.6,24.83,NW,307,0.0,0.0,15,0.00,,---,0.00,VWS V13.01,2013-06-01 02:51:00,
2013-05-31 21:56:00,74.7,25.5,24.83,NW,307,0.0,0.0,16,0.00,,---,0.00,VWS V13.01,2013-06-01 02:56:00,
2013-05-31 22:01:00,74.1,25.1,24.83,NW,307,0.0,0.0,16,0.00,,---,0.00,VWS V13.01,2013-06-01 03:01:00,
2013-05-31 22:06:00,73.6,24.7,24.83,NW,307,0.0,0.0,16,0.00,,---,0.00,VWS V13.01,2013-06-01 03:06:00,
2013-05-31 22:11:00,73.2,24.4,24.83,NW,309,0.0,0.0,16,0.00,,---,0.00,VWS V13.01,2013-06-01 03:11:00,
2013-05-31 22:16:00,73.2,24.4,24.83,NW,309,0.0,0.0,16,0.00,,---,0.00,VWS V13.01,2013-06-01 03:16:00,
2013-05-31 22:21:00,72.7,23.9,24.83,NW,309,0.0,0.0,16,0.00,,---,0.00,VWS V13.01,2013-06-01 03:21:00,
2013-05-31 22:26:00,72.1,23.5,24.83,NW,309,0.0,0.0,16,0.00,,---,0.00,VWS V13.01,2013-06-01 03:26:00,
2013-05-31 22:31:00,71.6,23.1,24.86,NW,309,0.0,0.0,16,0.00,,---,0.00,VWS V13.01,2013-06-01 03:31:00,
2013-05-31 22:36:00,71.4,24.4,24.86,NW,310,0.0,0.0,17,0.00,,---,0.00,VWS V13.01,2013-06-01 03:36:00,
2013-05-31 22:41:00,70.9,23.9,24.86,NW,326,4.0,4.0,17,0.00,,---,0.00,VWS V13.01,2013-06-01 03:41:00,
2013-05-31 22:46:00,70.3,23.5,24.86,NNW,331,2.7,2.7,17,0.00,,---,0.00,VWS V13.01,2013-06-01 03:46:00,
2013-05-31 22:51:00,70.0,23.2,24.86,NNW,330,0.0,0.0,17,0.00,,---,0.00,VWS V13.01,2013-06-01 03:51:00,
2013-05-31 22:56:00,69.6,22.9,24.86,North,0,3.6,3.6,17,0.00,,---,0.00,VWS V13.01,2013-06-01 03:56:00,
2013-05-31 23:01:00,69.6,22.9,24.86,North,0,0.0,2.2,17,0.00,,---,0.00,VWS V13.01,2013-06-01 04:01:00,
2013-05-31 23:06:00,69.4,22.8,24.86,North,0,0.0,0.0,17,0.00,,---,0.00,VWS V13.01,2013-06-01 04:06:00,
2013-05-31 23:11:00,69.1,22.5,24.86,North,0,0.0,0.0,17,0.00,,---,0.00,VWS V13.01,2013-06-01 04:11:00,
2013-05-31 23:16:00,68.9,22.3,24.86,North,0,0.0,0.0,17,0.00,,---,0.00,VWS V13.01,2013-06-01 04:16:00,
2013-05-31 23:21:00,68.7,22.2,24.86,North,0,0.0,0.0,17,0.00,,---,0.00,VWS V13.01,2013-06-01 04:21:00,
2013-05-31 23:26:00,68.2,21.7,24.86,North,0,0.0,0.0,17,0.00,,---,0.00,VWS V13.01,2013-06-01 04:26:00,
2013-05-31 23:31:00,67.5,21.2,24.86,North,0,0.0,0.0,17,0.00,,---,0.00,VWS V13.01,2013-06-01 04:31:00,
2013-05-31 23:36:00,66.9,20.7,24.86,North,0,0.0,0.0,17,0.00,,---,0.00,VWS V13.01,2013-06-01 04:36:00,
2013-05-31 23:41:00,66.7,20.6,24.86,North,0,0.0,0.0,17,0.00,,---,0.00,VWS V13.01,2013-06-01 04:41:00,
2013-05-31 23:46:00,66.7,20.6,24.86,North,0,0.0,0.0,17,0.00,,---,0.00,VWS V13.01,2013-06-01 04:46:00,
2013-05-31 23:51:00,66.6,20.4,24.86,North,0,0.0,0.0,17,0.00,,---,0.00,VWS V13.01,2013-06-01 04:51:00,
2013-05-31 23:56:00,66.4,20.3,24.86,NW,317,0.0,0.0,17,0.00,,---,0.00,VWS V13.01,2013-06-01 04:56:00,